Time;durP1;ratioP1;P1;durP2;ratioP2;P2;SDS_P1;SDS_P2;PMS_P1;PMS_P2;Temp;Humidity;BMP_temperature;BMP_pressure;BME280_temperature;BME280_humidity;BME280_pressure;Samples;Min_cycle;Max_cycle;Signal;HPM_P1;HPM_P2
2023/06/06 07:01:40;;;;;;;0.43;0.43;;;17.90;99.90;21.60;101913.00;;;;6247891;23;20170;-77
2023/06/06 07:04:08;;;;;;;2.67;2.45;;;18.70;99.90;21.20;101938.00;;;;6220959;23;20516;-76
2023/06/06 07:06:52;;;;;;;0.20;0.20;;;19.10;99.90;22.20;101928.00;;;;6220528;23;20224;-75
2023/06/06 07:09:20;;;;;;;1.70;1.60;;;19.30;99.90;22.00;101963.00;;;;6196057;23;20935;-75
2023/06/06 07:12:07;;;;;;;1.25;1.13;;;19.80;99.90;22.60;101976.00;;;;6221014;23;20177;-76
2023/06/06 07:14:45;;;;;;;1.60;1.02;;;19.90;99.90;24.30;101975.00;;;;6220954;23;20173;-75
2023/06/06 07:17:11;;;;;;;3.08;1.75;;;21.40;99.90;21.80;101974.00;;;;6196070;23;20177;-77
2023/06/06 07:19:39;;;;;;;0.77;0.70;;;20.10;99.90;24.40;101975.00;;;;6247149;23;20570;-76
2023/06/06 07:22:25;;;;;;;0.82;0.75;;;21.00;99.90;21.80;102013.00;;;;6220889;23;20142;-77
2023/06/06 07:24:51;;;;;;;1.10;1.00;;;20.20;99.90;22.10;101986.00;;;;6166117;23;20203;-76
2023/06/06 07:27:19;;;;;;;0.25;0.25;;;19.60;99.90;23.10;101979.00;;;;6213964;23;20481;-76
2023/06/06 07:30:14;;;;;;;0.40;0.30;;;20.10;99.90;24.00;101985.00;;;;6240089;23;20153;-77
2023/06/06 07:33:05;;;;;;;0.73;0.73;;;20.60;99.90;23.20;101949.00;;;;6168579;23;20249;-77
2023/06/06 07:35:51;;;;;;;1.42;1.33;;;21.00;99.90;23.00;101991.00;;;;6188789;23;20235;-77
2023/06/06 07:38:29;;;;;;;0.50;0.50;;;20.70;99.90;23.70;101956.00;;;;6212686;23;20165;-75
2023/06/06 07:40:56;;;;;;;0.65;0.65;;;21.30;99.90;23.00;101965.00;;;;6194876;23;20161;-76
2023/06/06 07:43:22;;;;;;;1.85;1.63;;;20.80;99.90;22.70;102013.00;;;;6194594;23;20537;-75
2023/06/06 07:46:05;;;;;;;0.30;0.30;;;21.00;99.90;23.20;102012.00;;;;6219830;23;20199;-75
2023/06/06 07:48:31;;;;;;;1.30;1.20;;;21.00;99.90;22.50;102020.00;;;;6220170;23;20252;-76
2023/06/06 07:50:57;;;;;;;4.75;4.35;;;20.90;99.90;23.30;102003.00;;;;6220692;23;20228;-76
2023/06/06 07:53:26;;;;;;;2.40;1.05;;;20.80;99.90;24.20;101986.00;;;;6220727;23;20165;-75
2023/06/06 07:56:23;;;;;;;0.47;0.47;;;21.10;99.90;27.00;101956.00;;;;6247474;23;20150;-76
2023/06/06 07:58:54;;;;;;;1.33;1.00;;;23.10;99.90;25.40;101968.00;;;;6198813;23;20576;-75
2023/06/06 08:01:23;;;;;;;0.38;0.38;;;22.90;99.90;23.40;102004.00;;;;6195384;23;20193;-75
2023/06/06 08:03:54;;;;;;;1.00;1.00;;;21.80;99.90;23.10;101970.00;;;;6195434;23;20570;-76
2023/06/06 08:06:37;;;;;;;1.17;1.15;;;21.20;99.90;23.70;102011.00;;;;6196387;23;20528;-76
2023/06/06 08:09:20;;;;;;;0.73;0.52;;;21.20;99.90;25.80;101982.00;;;;6220871;23;20177;-76
2023/06/06 08:12:05;;;;;;;0.20;0.20;;;21.90;99.90;24.60;101947.00;;;;6195271;23;20188;-73
2023/06/06 08:14:41;;;;;;;0.20;0.20;;;22.40;99.90;25.50;101957.00;;;;6198350;23;20154;-73
2023/06/06 08:17:07;;;;;;;0.65;0.38;;;22.60;99.90;25.50;101978.00;;;;6195129;23;20154;-73
2023/06/06 08:20:08;;;;;;;0.20;0.20;;;22.70;99.90;27.90;101941.00;;;;6244000;23;20149;-76
2023/06/06 08:22:54;;;;;;;1.92;1.75;;;23.70;99.90;24.90;101984.00;;;;6221612;23;20219;-74
2023/06/06 08:25:46;;;;;;;1.10;0.77;;;23.50;99.90;24.60;102005.00;;;;6204622;23;20197;-74
2023/06/06 08:28:36;;;;;;;1.38;1.27;;;22.10;99.90;26.10;101966.00;;;;6172428;23;20157;-75
2023/06/06 08:31:05;;;;;;;0.45;0.45;;;23.00;99.90;25.20;101982.00;;;;6192337;23;20189;-75
2023/06/06 08:33:57;;;;;;;0.10;0.10;;;23.00;99.90;24.90;101981.00;;;;6218850;23;20166;-77
2023/06/06 08:36:42;;;;;;;1.15;1.15;;;22.50;99.90;24.20;101982.00;;;;6192191;23;20161;-78
2023/06/06 08:39:08;;;;;;;0.90;0.55;;;22.10;99.90;24.80;101988.00;;;;6218444;23;20158;-75
2023/06/06 08:42:22;;;;;;;0.80;0.80;;;22.00;99.90;25.00;101985.00;;;;6193465;23;20161;-77
2023/06/06 08:45:26;;;;;;;3.22;1.58;;;21.90;99.90;24.40;101949.00;;;;6218726;23;20276;-77
2023/06/06 08:48:26;;;;;;;0.25;0.25;;;22.50;99.90;26.10;101959.00;;;;6193726;23;20185;-75
2023/06/06 08:51:27;;;;;;;0.50;0.50;;;22.90;99.90;24.60;101993.00;;;;6247079;23;20285;-74
2023/06/06 08:53:55;;;;;;;1.70;0.68;;;22.60;99.90;23.50;102015.00;;;;6194013;23;20196;-76
2023/06/06 08:56:26;;;;;;;0.38;0.38;;;21.60;99.90;25.30;101985.00;;;;6218429;23;20206;-75
2023/06/06 08:59:10;;;;;;;2.33;1.85;;;22.60;99.90;24.80;102000.00;;;;6218149;23;20635;-77
2023/06/06 09:01:38;;;;;;;0.20;0.20;;;22.30;99.90;26.70;101982.00;;;;6192431;23;20243;-74
2023/06/06 09:04:23;;;;;;;0.52;0.52;;;22.90;99.90;24.80;102010.00;;;;6192467;23;20160;-73
2023/06/06 09:07:00;;;;;;;0.10;0.10;;;23.00;99.90;26.20;101979.00;;;;6217696;23;20134;-74
2023/06/06 09:09:27;;;;;;;0.65;0.65;;;22.90;99.90;26.40;101969.00;;;;6218964;23;20384;-73
2023/06/06 09:11:55;;;;;;;2.67;1.60;;;23.40;99.90;26.30;101980.00;;;;6192519;23;20256;-72
2023/06/06 09:14:24;;;;;;;0.45;0.45;;;23.60;99.90;25.10;101982.00;;;;6218095;23;20232;-71
2023/06/06 09:16:56;;;;;;;0.25;0.25;;;23.30;99.90;27.80;101944.00;;;;6218193;23;20236;-72
2023/06/06 09:19:25;;;;;;;0.88;0.80;;;24.00;99.90;25.70;101978.00;;;;6218152;23;20585;-73
2023/06/06 09:22:11;;;;;;;0.50;0.50;;;23.80;99.90;28.10;101942.00;;;;6193199;23;20162;-72
2023/06/06 09:25:35;;;;;;;0.93;0.85;;;24.50;99.90;25.10;101990.00;;;;6192527;23;20236;-72
2023/06/06 09:28:38;;;;;;;2.13;1.85;;;23.60;99.90;25.70;101989.00;;;;6242244;23;20170;-74
2023/06/06 09:31:37;;;;;;;2.22;1.40;;;23.50;99.90;27.90;101947.00;;;;6198146;23;20624;-73
2023/06/06 09:34:11;;;;;;;1.48;0.90;;;24.20;99.90;27.10;101918.00;;;;6218030;23;20157;-73
2023/06/06 09:36:42;;;;;;;1.70;1.42;;;24.10;99.90;24.10;101987.00;;;;6218835;23;20513;-75
2023/06/06 09:39:13;;;;;;;0.20;0.20;;;22.60;99.90;26.90;101972.00;;;;6219879;23;20224;-73
2023/06/06 09:42:06;;;;;;;1.80;1.70;;;23.20;99.90;28.90;101919.00;;;;6192383;23;20249;-73
2023/06/06 09:44:32;;;;;;;2.05;1.23;;;24.90;99.90;28.70;101916.00;;;;6203349;23;20184;-77
2023/06/06 09:47:06;;;;;;;1.70;1.13;;;25.40;99.90;26.00;101991.00;;;;6218579;23;20154;-71
2023/06/06 09:49:41;;;;;;;1.45;1.23;;;24.40;99.90;26.50;101968.00;;;;6193836;23;20185;-79
2023/06/06 09:52:13;;;;;;;0.52;0.52;;;23.80;99.90;29.20;101876.00;;;;6218085;23;20166;-78
2023/06/06 09:54:44;;;;;;;0.40;0.40;;;25.00;99.90;30.10;101896.00;;;;6218367;23;20566;-78
2023/06/06 09:57:37;;;;;;;1.27;0.75;;;26.10;99.90;27.10;101955.00;;;;6218036;23;20203;-74
2023/06/06 10:00:14;;;;;;;1.10;1.00;;;25.60;99.90;28.10;101931.00;;;;6194009;23;20662;-77
2023/06/06 10:02:55;;;;;;;3.97;2.17;;;25.20;99.90;26.70;101971.00;;;;6194244;23;20161;-69
2023/06/06 10:05:36;;;;;;;2.15;1.02;;;24.90;99.90;28.20;101945.00;;;;6245438;23;20149;-73
2023/06/06 10:08:09;;;;;;;2.10;0.90;;;25.60;99.90;27.10;101916.00;;;;6217883;23;20165;-71
2023/06/06 10:10:39;;;;;;;1.55;1.45;;;24.90;99.90;29.30;101914.00;;;;6219381;23;20168;-70
2023/06/06 10:13:09;;;;;;;2.13;1.98;;;25.90;99.90;25.90;101958.00;;;;6193958;23;20209;-73
2023/06/06 10:15:45;;;;;;;3.88;1.67;;;24.90;99.90;26.60;101974.00;;;;6194382;23;20512;-70
2023/06/06 10:18:12;;;;;;;0.57;0.57;;;24.60;99.90;28.60;101933.00;;;;6218710;23;20165;-69
2023/06/06 10:20:43;;;;;;;1.38;1.30;;;25.30;99.90;26.40;101976.00;;;;6194556;23;20161;-73
2023/06/06 10:34:09;;;;;;;1.35;0.88;;;24.50;99.90;27.50;101978.00;;;;5108930;27;20885;-68
2023/06/06 10:37:23;;;;;;;3.10;0.82;;;25.40;99.90;28.50;101954.00;;;;5047963;28;20215;-68
2023/06/06 10:40:09;;;;;;;0.45;0.45;;;25.80;99.90;30.20;101914.00;;;;5087770;28;20185;-68
2023/06/06 10:42:54;;;;;;;0.30;0.30;;;26.80;99.90;30.50;101922.00;;;;5088334;28;20212;-69
2023/06/06 10:46:11;;;;;;;2.35;2.13;;;27.60;99.90;28.60;101950.00;;;;5072501;28;20673;-67
2023/06/06 10:48:58;;;;;;;1.75;1.45;;;26.10;99.90;28.30;101965.00;;;;5022836;28;20192;-68
2023/06/06 10:51:43;;;;;;;3.60;2.05;;;25.70;99.90;26.80;101954.00;;;;5024375;28;20669;-68
2023/06/06 10:54:38;;;;;;;2.53;1.88;;;25.80;99.90;26.60;101982.00;;;;5064957;28;20189;-67
2023/06/06 10:57:16;;;;;;;0.30;0.30;;;25.50;99.90;28.80;101955.00;;;;5079035;28;20180;-69
2023/06/06 11:00:09;;;;;;;0.95;0.95;;;25.40;99.90;28.80;101902.00;;;;5090341;28;20185;-70
2023/06/06 11:02:42;;;;;;;1.67;0.90;;;26.40;99.90;26.90;101955.00;;;;5070921;28;20189;-72
2023/06/06 11:05:32;;;;;;;0.57;0.57;;;25.30;99.90;29.10;101925.00;;;;5071693;28;20569;-72
2023/06/06 11:08:02;;;;;;;0.77;0.77;;;26.10;99.90;28.60;101936.00;;;;5072104;28;20196;-72
2023/06/06 11:10:48;;;;;;;0.10;0.10;;;26.60;99.90;29.90;101911.00;;;;5071792;28;20185;-72
2023/06/06 11:13:38;;;;;;;2.05;1.95;;;26.50;99.90;28.40;101896.00;;;;5071445;28;20732;-72
2023/06/06 11:16:05;;;;;;;2.20;1.45;;;26.80;99.90;29.40;101920.00;;;;5071639;28;20177;-72
2023/06/06 11:18:53;;;;;;;4.28;1.48;;;26.80;99.90;29.40;101904.00;;;;5071545;28;20234;-73
2023/06/06 11:21:38;;;;;;;1.65;1.45;;;27.10;99.90;27.70;101930.00;;;;5072050;28;20185;-72
2023/06/06 11:24:31;;;;;;;5.72;1.95;;;26.00;99.90;27.70;101946.00;;;;5058839;28;20273;-72
2023/06/06 11:27:00;;;;;;;0.63;0.57;;;25.90;99.90;28.30;101939.00;;;;5069490;28;20181;-72
2023/06/06 11:30:14;;;;;;;4.30;2.67;;;26.20;99.90;29.10;101927.00;;;;5061913;28;20264;-72
2023/06/06 11:33:25;;;;;;;0.93;0.57;;;26.70;99.90;29.70;101917.00;;;;5082690;28;20287;-72
2023/06/06 11:36:46;;;;;;;2.08;1.58;;;26.70;99.90;30.10;101916.00;;;;5066519;28;20189;-72
2023/06/06 11:40:11;;;;;;;2.08;0.90;;;26.60;99.90;32.00;101863.00;;;;5065219;28;20177;-72
2023/06/06 11:43:30;;;;;;;0.45;0.45;;;28.30;99.90;31.00;101876.00;;;;5064172;28;20212;-72
2023/06/06 11:46:25;;;;;;;4.28;0.60;;;28.20;99.90;31.20;101884.00;;;;5056537;28;20212;-72
2023/06/06 11:48:59;;;;;;;1.35;1.10;;;28.30;99.90;29.10;101908.00;;;;5040288;28;20208;-73
2023/06/06 11:51:49;;;;;;;0.52;0.52;;;27.30;99.90;28.40;101931.00;;;;5064049;28;20655;-73
2023/06/06 11:54:34;;;;;;;3.05;2.13;;;26.20;99.90;27.00;101939.00;;;;5056613;28;20270;-72
2023/06/06 11:57:24;;;;;;;1.38;1.20;;;25.40;99.90;27.60;101948.00;;;;5050531;28;20189;-72
2023/06/06 12:00:18;;;;;;;1.08;1.08;;;25.10;99.90;28.50;101935.00;;;;5056100;28;20268;-72
2023/06/06 12:02:53;;;;;;;2.65;2.25;;;25.30;99.90;26.80;101954.00;;;;5056756;28;20185;-69
2023/06/06 12:05:41;;;;;;;1.15;0.70;;;24.70;99.90;27.70;101943.00;;;;5055025;28;20180;-70
2023/06/06 12:08:15;;;;;;;1.40;1.30;;;25.10;99.90;27.70;101907.00;;;;5056273;28;20205;-70
2023/06/06 12:12:04;;;;;;;2.45;1.90;;;25.10;99.90;27.70;101939.00;;;;5054795;28;20196;-68
2023/06/06 12:15:09;;;;;;;1.38;0.50;;;25.00;99.90;27.70;101924.00;;;;5058788;28;20197;-69
2023/06/06 12:17:41;;;;;;;2.63;1.63;;;25.40;99.90;27.50;101894.00;;;;5041775;28;20197;-66
2023/06/06 12:20:07;;;;;;;4.60;2.58;;;25.00;99.90;26.50;101942.00;;;;5056611;28;20182;-67
2023/06/06 12:22:56;;;;;;;1.45;0.98;;;24.60;99.90;26.80;101910.00;;;;5054956;28;20200;-66
2023/06/06 12:25:40;;;;;;;1.60;1.35;;;24.40;99.90;27.00;101946.00;;;;5061925;28;20182;-67
2023/06/06 12:28:31;;;;;;;1.20;1.20;;;24.50;99.90;28.00;101937.00;;;;5074533;28;20678;-68
2023/06/06 12:31:17;;;;;;;1.83;1.73;;;24.80;99.90;28.40;101871.00;;;;5056906;28;20186;-69
2023/06/06 12:33:59;;;;;;;1.67;1.50;;;25.20;99.90;27.80;101921.00;;;;5054339;28;20667;-69
2023/06/06 12:36:48;;;;;;;4.43;1.40;;;25.20;99.90;27.30;101881.00;;;;5068632;28;20189;-68
2023/06/06 12:39:21;;;;;;;0.80;0.80;;;24.80;99.90;27.80;101914.00;;;;5071157;28;20189;-68
2023/06/06 12:41:47;;;;;;;0.25;0.25;;;24.90;99.90;27.70;101913.00;;;;5073224;28;20643;-68
2023/06/06 12:44:16;;;;;;;0.85;0.77;;;24.90;99.90;28.50;101885.00;;;;5056905;28;20196;-68
2023/06/06 12:47:02;;;;;;;1.58;1.23;;;25.00;99.90;28.70;101893.00;;;;5055476;28;20185;-68
2023/06/06 12:49:28;;;;;;;0.88;0.82;;;25.50;99.90;27.60;101909.00;;;;5073580;28;20193;-68
2023/06/06 12:51:54;;;;;;;1.05;0.93;;;25.30;99.90;27.90;101854.00;;;;5056170;28;20284;-68
2023/06/06 12:54:40;;;;;;;3.10;1.27;;;25.10;99.90;28.40;101888.00;;;;5055840;28;20201;-68
2023/06/06 12:57:35;;;;;;;0.30;0.20;;;25.40;99.90;28.40;101892.00;;;;5042567;28;20186;-68
2023/06/06 13:00:13;;;;;;;3.10;1.55;;;25.30;99.90;28.20;101891.00;;;;5073309;28;20192;-68
2023/06/06 13:02:53;;;;;;;1.05;0.95;;;25.10;99.90;29.00;101885.00;;;;5056420;28;20181;-70
2023/06/06 13:05:19;;;;;;;1.50;1.40;;;25.50;99.90;28.00;101871.00;;;;5055444;28;20269;-70
2023/06/06 13:07:55;;;;;;;1.02;0.98;;;25.30;99.90;28.50;101885.00;;;;5056142;28;20603;-71
2023/06/06 13:10:28;;;;;;;0.80;0.80;;;25.50;99.90;28.10;101896.00;;;;5056686;28;20187;-70
2023/06/06 13:12:54;;;;;;;4.57;1.60;;;25.60;99.90;27.30;101863.00;;;;5056197;28;20272;-69
2023/06/06 13:15:20;;;;;;;1.25;0.73;;;25.10;99.90;28.40;101892.00;;;;5056013;28;20181;-70
2023/06/06 13:17:46;;;;;;;0.30;0.30;;;25.10;99.90;28.40;101848.00;;;;5072547;28;20238;-70
2023/06/06 13:20:14;;;;;;;1.27;0.60;;;25.20;99.90;28.60;101876.00;;;;5055993;28;20193;-70
2023/06/06 13:22:41;;;;;;;4.95;2.95;;;25.40;99.90;27.70;101863.00;;;;5055959;28;20264;-70
2023/06/06 13:25:16;;;;;;;1.25;1.08;;;25.60;99.90;27.80;101888.00;;;;5055647;28;20259;-70
2023/06/06 13:27:42;;;;;;;2.13;1.95;;;25.00;99.90;27.50;101902.00;;;;5054739;28;20559;-71
2023/06/06 13:30:08;;;;;;;1.65;1.50;;;25.00;99.90;28.20;101893.00;;;;5055763;28;20185;-69
2023/06/06 13:32:35;;;;;;;0.32;0.32;;;25.00;99.90;28.20;101847.00;;;;5054606;28;20664;-69
2023/06/06 13:35:01;;;;;;;1.98;1.45;;;25.20;99.90;28.00;101875.00;;;;5055763;28;20268;-70
2023/06/06 13:37:46;;;;;;;0.60;0.60;;;25.40;99.90;28.10;101877.00;;;;5055029;28;20592;-70
2023/06/06 13:40:21;;;;;;;5.88;1.75;;;25.40;99.90;27.50;101883.00;;;;5071872;28;20215;-70
2023/06/06 13:42:47;;;;;;;1.27;1.00;;;25.50;99.90;28.40;101875.00;;;;5055546;28;20193;-69
2023/06/06 13:45:20;;;;;;;5.72;1.70;;;25.30;99.90;29.00;101857.00;;;;5055066;28;20182;-70
2023/06/06 13:47:53;;;;;;;1.33;1.23;;;25.60;99.90;28.20;101873.00;;;;5055427;28;20185;-69
2023/06/06 13:50:19;;;;;;;1.73;1.40;;;25.60;99.90;27.70;101886.00;;;;5055425;28;20185;-69
2023/06/06 13:52:55;;;;;;;1.05;1.05;;;25.30;99.90;29.60;101847.00;;;;5054291;28;20278;-69
2023/06/06 13:55:41;;;;;;;0.65;0.65;;;25.60;99.90;28.10;101849.00;;;;5055853;28;20249;-69
2023/06/06 13:58:08;;;;;;;1.58;1.48;;;25.60;99.90;29.00;101848.00;;;;5055451;28;20180;-69
2023/06/06 14:00:37;;;;;;;2.05;1.42;;;25.60;99.90;27.80;101858.00;;;;5054219;28;20231;-69
2023/06/06 14:03:20;;;;;;;5.20;1.77;;;25.40;99.90;28.70;101863.00;;;;5055494;28;20185;-69
2023/06/06 14:05:53;;;;;;;1.13;1.02;;;25.50;99.90;27.50;101877.00;;;;5053665;28;20648;-69
2023/06/06 14:08:24;;;;;;;2.17;1.33;;;25.10;99.90;28.10;101865.00;;;;5055490;28;20189;-69
2023/06/06 14:10:50;;;;;;;23.23;1.90;;;25.10;99.90;27.60;101861.00;;;;5046524;28;20189;-70
2023/06/06 14:13:20;;;;;;;0.57;0.57;;;24.90;99.90;28.60;101860.00;;;;5054221;28;20205;-69
2023/06/06 14:15:48;;;;;;;2.38;2.13;;;25.10;99.90;27.70;101860.00;;;;5054920;28;20177;-69
2023/06/06 14:18:15;;;;;;;0.35;0.35;;;25.00;99.90;28.60;101828.00;;;;5054002;28;20268;-69
2023/06/06 14:21:10;;;;;;;3.20;1.48;;;25.20;99.90;27.90;101860.00;;;;5054119;28;20281;-69
2023/06/06 14:23:59;;;;;;;0.22;0.22;;;25.20;99.90;28.60;101831.00;;;;5054826;28;20202;-69
2023/06/06 14:26:49;;;;;;;0.73;0.73;;;25.30;99.90;28.20;101859.00;;;;5047659;28;20189;-69
2023/06/06 14:29:16;;;;;;;0.98;0.85;;;25.20;99.90;28.60;101813.00;;;;5055148;28;20187;-69
2023/06/06 14:32:17;;;;;;;0.40;0.30;;;25.50;99.90;28.70;101848.00;;;;5064665;28;20282;-69
2023/06/06 14:35:22;;;;;;;1.38;1.27;;;25.40;99.90;28.20;101858.00;;;;5051211;28;20186;-69
2023/06/06 14:38:44;;;;;;;2.45;1.60;;;25.20;99.90;28.20;101854.00;;;;5053163;28;20209;-69
2023/06/06 14:41:44;;;;;;;1.35;0.75;;;25.30;99.90;28.70;101840.00;;;;5070630;28;20205;-70
2023/06/06 14:45:03;;;;;;;1.02;1.02;;;25.50;99.90;28.50;101838.00;;;;5066580;28;20185;-69
2023/06/06 14:48:21;;;;;;;1.25;1.08;;;25.30;99.90;28.10;101843.00;;;;5052888;28;20242;-70
2023/06/06 14:51:40;;;;;;;1.50;1.02;;;25.30;99.90;28.40;101845.00;;;;5051546;28;20185;-69
2023/06/06 14:55:06;;;;;;;2.03;1.83;;;25.20;99.90;28.00;101858.00;;;;5068978;28;20269;-69
2023/06/06 14:58:42;;;;;;;2.20;0.50;;;25.00;99.90;28.30;101845.00;;;;5069109;28;20181;-69
2023/06/06 15:02:00;;;;;;;1.00;1.00;;;25.00;99.90;29.10;101832.00;;;;5070733;28;20331;-69
2023/06/06 15:05:04;;;;;;;0.80;0.55;;;25.40;99.90;28.10;101828.00;;;;5051900;28;20185;-70
2023/06/06 15:07:50;;;;;;;1.75;1.65;;;25.50;99.90;27.80;101848.00;;;;5051774;28;20275;-71
2023/06/06 15:10:36;;;;;;;1.65;1.55;;;25.20;99.90;27.60;101854.00;;;;5050832;28;20186;-71
2023/06/06 15:13:27;;;;;;;2.58;0.65;;;25.10;99.90;28.40;101833.00;;;;5069431;28;20197;-71
2023/06/06 15:16:00;;;;;;;1.48;1.38;;;25.00;99.90;27.70;101835.00;;;;5069078;28;20201;-71
2023/06/06 15:18:45;;;;;;;1.25;1.15;;;25.10;99.90;28.60;101831.00;;;;5053247;28;20190;-71
2023/06/06 15:21:31;;;;;;;0.55;0.50;;;25.40;99.90;28.40;101824.00;;;;5055255;28;20215;-71
2023/06/06 15:24:53;;;;;;;1.75;1.25;;;25.30;99.90;28.10;101828.00;;;;5055614;28;20619;-71
2023/06/06 15:27:25;;;;;;;0.95;0.95;;;25.30;99.90;28.10;101828.00;;;;5074272;28;20191;-75
2023/06/06 15:30:28;;;;;;;1.58;1.20;;;25.30;99.90;28.30;101818.00;;;;5056752;28;20178;-69
2023/06/06 15:33:19;;;;;;;1.42;0.77;;;25.30;99.90;28.50;101812.00;;;;5048307;28;20233;-68
2023/06/06 15:36:19;;;;;;;0.40;0.40;;;25.40;99.90;27.70;101820.00;;;;5054418;28;20181;-68
2023/06/06 15:39:26;;;;;;;2.97;1.65;;;25.00;99.90;28.00;101820.00;;;;5059227;28;20200;-69
2023/06/06 15:42:27;;;;;;;0.63;0.55;;;25.20;99.90;29.30;101800.00;;;;5059870;28;20196;-69
2023/06/06 15:45:28;;;;;;;1.85;1.45;;;25.40;99.90;28.30;101803.00;;;;5058721;28;20658;-68
2023/06/06 15:48:19;;;;;;;1.52;1.42;;;25.40;99.90;27.90;101809.00;;;;5066670;28;20196;-68
2023/06/06 15:51:03;;;;;;;0.55;0.55;;;25.30;99.90;28.60;101806.00;;;;5073364;28;20178;-67
2023/06/06 15:53:49;;;;;;;1.02;0.98;;;25.40;99.90;27.50;101820.00;;;;5057579;28;20200;-67
2023/06/06 15:56:57;;;;;;;0.45;0.45;;;25.20;99.90;28.20;101814.00;;;;5056301;28;20184;-68
2023/06/06 15:59:51;;;;;;;2.72;1.90;;;25.10;99.90;27.50;101777.00;;;;5061229;28;20185;-68
2023/06/06 16:02:27;;;;;;;1.40;1.30;;;24.90;99.90;28.60;101758.00;;;;5055450;28;20551;-67
2023/06/06 16:05:14;;;;;;;0.70;0.57;;;25.10;99.90;28.70;101804.00;;;;5070852;28;20185;-68
2023/06/06 16:08:15;;;;;;;1.15;1.05;;;25.30;99.90;28.20;101789.00;;;;5054469;28;20182;-68
2023/06/06 16:10:43;;;;;;;3.13;0.95;;;25.20;99.90;29.10;101787.00;;;;5070471;28;20192;-68
2023/06/06 16:13:34;;;;;;;1.70;0.30;;;25.40;99.90;28.50;101776.00;;;;5054201;28;20213;-67
2023/06/06 16:16:36;;;;;;;0.22;0.22;;;25.40;99.90;28.60;101762.00;;;;5054963;28;20659;-68
2023/06/06 16:19:37;;;;;;;0.90;0.70;;;25.40;99.90;28.40;101795.00;;;;5057057;28;20290;-68
2023/06/06 16:22:37;;;;;;;2.22;2.03;;;25.30;99.90;28.60;101794.00;;;;5089387;28;20186;-68
2023/06/06 16:25:56;;;;;;;1.75;1.58;;;25.20;99.90;27.20;101807.00;;;;5055904;28;20201;-68
2023/06/06 16:28:57;;;;;;;1.33;1.30;;;25.00;99.90;28.30;101787.00;;;;5056398;28;20239;-68
2023/06/06 16:31:23;;;;;;;1.25;1.13;;;24.90;99.90;28.00;101792.00;;;;5071056;28;20627;-68
2023/06/06 16:34:06;;;;;;;1.00;1.00;;;24.80;99.90;27.90;101799.00;;;;5079808;28;20181;-68
2023/06/06 16:37:30;;;;;;;0.63;0.47;;;24.90;99.90;27.60;101809.00;;;;5086247;28;20216;-68
2023/06/06 16:40:48;;;;;;;0.20;0.20;;;24.70;99.90;27.70;101808.00;;;;5081643;28;20292;-68
2023/06/06 16:43:55;;;;;;;0.55;0.52;;;24.90;99.90;27.70;101818.00;;;;5066979;28;20326;-68
2023/06/06 16:47:33;;;;;;;1.50;1.40;;;24.80;99.90;26.90;101823.00;;;;5080866;28;20203;-68
2023/06/06 16:50:29;;;;;;;2.58;1.08;;;24.40;99.90;27.40;101831.00;;;;5070215;28;20185;-68
2023/06/06 16:53:13;;;;;;;0.28;0.28;;;24.60;99.90;28.30;101811.00;;;;5069636;28;20228;-68
2023/06/06 16:56:08;;;;;;;3.33;2.42;;;24.70;99.90;28.70;101802.00;;;;5052572;28;20190;-68
2023/06/06 16:58:42;;;;;;;0.40;0.40;;;25.00;99.90;28.10;101824.00;;;;5069122;28;20184;-68
2023/06/06 17:01:42;;;;;;;0.20;0.20;;;24.90;99.90;27.70;101831.00;;;;5037377;28;20292;-68
2023/06/06 17:04:36;;;;;;;1.15;1.05;;;24.60;99.90;27.50;101821.00;;;;5045412;28;20190;-68
2023/06/06 17:07:08;;;;;;;0.52;0.52;;;24.50;99.90;27.20;101838.00;;;;5046598;28;20312;-68
2023/06/06 17:09:54;;;;;;;7.95;3.67;;;24.30;99.90;26.70;101806.00;;;;5072450;28;20662;-67
2023/06/06 17:12:45;;;;;;;0.68;0.68;;;24.10;99.90;27.40;101840.00;;;;5082587;28;20729;-68
2023/06/06 17:15:26;;;;;;;0.22;0.22;;;24.00;99.90;27.90;101834.00;;;;5077708;28;20603;-68
2023/06/06 17:18:11;;;;;;;0.52;0.52;;;24.30;99.90;27.80;101836.00;;;;5056260;28;20231;-68
2023/06/06 17:20:55;;;;;;;0.25;0.22;;;24.40;99.90;28.00;101847.00;;;;5055213;28;20194;-68
2023/06/06 17:23:43;;;;;;;0.20;0.20;;;24.40;99.90;28.10;101844.00;;;;5055771;28;20197;-67
2023/06/06 17:26:09;;;;;;;0.28;0.28;;;24.40;99.90;27.70;101839.00;;;;5037860;28;20192;-67
2023/06/06 17:28:38;;;;;;;1.38;1.20;;;24.50;99.90;27.20;101841.00;;;;5055774;28;20181;-67
2023/06/06 17:31:03;;;;;;;0.22;0.22;;;24.20;99.90;27.40;101838.00;;;;5077220;28;20186;-67
2023/06/06 17:33:32;;;;;;;0.10;0.10;;;24.20;99.90;28.20;101841.00;;;;5054076;28;20564;-68
2023/06/06 17:36:08;;;;;;;0.25;0.25;;;24.40;99.90;27.80;101802.00;;;;5075793;28;20185;-67
2023/06/06 17:38:48;;;;;;;1.48;1.17;;;24.40;99.90;27.20;101844.00;;;;5055851;28;20276;-68
2023/06/06 17:41:16;;;;;;;0.10;0.10;;;24.20;99.90;27.40;101849.00;;;;5055618;28;20188;-67
2023/06/06 17:43:45;;;;;;;0.45;0.45;;;24.00;99.90;26.90;101857.00;;;;5071014;28;20204;-68
2023/06/06 17:46:11;;;;;;;3.13;2.92;;;23.90;99.90;26.80;101816.00;;;;5055795;28;20327;-68
2023/06/06 17:48:37;;;;;;;1.63;1.52;;;23.80;99.90;27.00;101843.00;;;;5070009;28;20716;-68
2023/06/06 17:51:05;;;;;;;0.80;0.52;;;23.70;99.90;26.80;101864.00;;;;5047141;28;20201;-68
2023/06/06 17:53:37;;;;;;;0.55;0.52;;;23.70;99.90;26.50;101864.00;;;;5069459;28;20208;-68
2023/06/06 17:56:04;;;;;;;0.57;0.55;;;23.50;99.90;26.30;101865.00;;;;5055620;28;20189;-68
2023/06/06 17:58:53;;;;;;;0.45;0.28;;;23.40;99.90;26.90;101846.00;;;;5055258;28;20181;-68
2023/06/06 18:01:30;;;;;;;1.00;0.45;;;23.60;99.90;26.90;101848.00;;;;5059560;28;20193;-68
2023/06/06 18:04:08;;;;;;;0.15;0.13;;;23.60;99.90;26.90;101854.00;;;;5055274;28;20250;-68
2023/06/06 18:07:03;;;;;;;1.52;1.52;;;23.60;99.90;27.40;101852.00;;;;5080737;28;20302;-68
2023/06/06 18:10:00;;;;;;;0.30;0.30;;;23.70;99.90;27.20;101850.00;;;;5064681;28;20184;-68
2023/06/06 18:13:13;;;;;;;0.20;0.20;;;23.70;99.90;25.90;101865.00;;;;5080753;28;20201;-68
2023/06/06 18:15:59;;;;;;;0.25;0.25;;;23.50;99.90;26.70;101833.00;;;;5064647;28;20181;-67
2023/06/06 18:18:32;;;;;;;0.47;0.47;;;23.30;99.90;26.40;101833.00;;;;5067401;28;20184;-67
2023/06/06 18:21:28;;;;;;;0.47;0.47;;;23.10;99.90;26.80;101836.00;;;;5078127;28;20220;-68
2023/06/06 18:24:49;;;;;;;0.65;0.65;;;23.20;99.90;26.60;101831.00;;;;5069420;28;20240;-68
2023/06/06 18:31:41;;;;;;;0.10;0.10;;;23.10;99.90;26.30;101811.00;;;;5056302;28;20663;-68
2023/06/06 18:35:20;;;;;;;0.25;0.25;;;22.90;99.90;26.30;101825.00;;;;5063187;28;20174;-68
2023/06/06 18:38:40;;;;;;;1.75;1.65;;;23.00;99.90;26.20;101796.00;;;;5051821;28;20193;-68
2023/06/06 18:41:54;;;;;;;1.15;0.47;;;22.70;99.90;25.80;101809.00;;;;5070952;28;20197;-68
2023/06/06 18:45:18;;;;;;;0.10;0.10;;;22.80;99.90;25.90;101805.00;;;;5051948;28;20276;-68
2023/06/06 18:48:31;;;;;;;0.68;0.68;;;22.60;99.90;25.70;101802.00;;;;5044305;28;20197;-68
2023/06/06 18:51:41;;;;;;;0.63;0.63;;;22.60;99.90;25.90;101766.00;;;;5070057;28;20185;-68
2023/06/06 18:55:07;;;;;;;0.57;0.57;;;22.60;99.90;25.10;101815.00;;;;5055741;28;20670;-68
2023/06/06 18:58:28;;;;;;;1.08;0.90;;;22.30;99.90;25.20;101821.00;;;;5048372;28;20264;-68
2023/06/06 19:01:29;;;;;;;0.40;0.40;;;22.20;99.90;24.70;101811.00;;;;5065888;28;20282;-68
2023/06/06 19:04:48;;;;;;;1.00;1.00;;;22.00;99.90;25.30;101823.00;;;;5082586;28;20173;-68
2023/06/06 19:08:09;;;;;;;1.90;1.35;;;22.00;99.90;25.50;101828.00;;;;5057478;28;20728;-68
2023/06/06 19:11:15;;;;;;;0.88;0.88;;;22.10;99.90;24.70;101842.00;;;;5055909;28;20540;-68
2023/06/06 19:14:37;;;;;;;1.00;0.82;;;22.00;99.90;24.50;101835.00;;;;5055867;28;20198;-68
2023/06/06 19:18:08;;;;;;;1.30;0.80;;;21.80;99.90;24.30;101827.00;;;;5055223;28;20723;-68
2023/06/06 19:21:26;;;;;;;1.58;1.48;;;21.70;99.90;24.50;101818.00;;;;5072720;28;20667;-68
2023/06/06 19:24:37;;;;;;;0.82;0.82;;;21.50;99.90;24.20;101818.00;;;;5071230;28;20198;-68
2023/06/06 19:27:46;;;;;;;4.07;2.38;;;21.40;99.90;24.60;101813.00;;;;5056958;28;20212;-68